createdAt,value
2023-04-27T00:01:52.503Z,1.50
2023-04-27T00:04:21.256Z,1.60
2023-04-27T00:06:49.462Z,1.30
2023-04-27T00:09:17.814Z,1.33
2023-04-27T00:11:47.733Z,1.50
2023-04-27T00:14:15.865Z,1.42
2023-04-27T00:16:44.079Z,1.38
2023-04-27T00:19:13.995Z,1.25
2023-04-27T00:21:42.691Z,1.63
2023-04-27T00:24:10.767Z,1.60
2023-04-27T00:26:38.829Z,1.30
2023-04-27T00:29:15.598Z,1.20
2023-04-27T00:31:44.019Z,1.60
2023-04-27T00:34:12.140Z,1.40
2023-04-27T00:36:40.254Z,1.55
2023-04-27T00:39:09.117Z,1.40
2023-04-27T00:41:39.310Z,1.30
2023-04-27T00:44:07.515Z,1.55
2023-04-27T00:46:37.187Z,1.20
2023-04-27T00:49:05.948Z,1.27
2023-04-27T00:51:34.188Z,1.40
2023-04-27T00:54:03.002Z,1.50
2023-04-27T00:56:31.908Z,1.30
2023-04-27T00:59:00.986Z,1.40
2023-04-27T01:01:31.111Z,1.52
2023-04-27T01:04:00.837Z,1.60
2023-04-27T01:06:29.784Z,1.42
2023-04-27T01:08:58.044Z,1.33
2023-04-27T01:11:26.297Z,1.27
2023-04-27T01:13:57.027Z,1.40
2023-04-27T01:16:25.294Z,1.77
2023-04-27T01:18:53.410Z,1.38
2023-04-27T01:21:22.856Z,1.30
2023-04-27T01:23:52.391Z,1.50
2023-04-27T01:26:20.452Z,1.50
2023-04-27T01:28:48.886Z,1.50
2023-04-27T01:31:17.117Z,1.27
2023-04-27T01:33:45.237Z,1.20
2023-04-27T01:36:13.369Z,1.30
2023-04-27T01:38:42.386Z,1.35
2023-04-27T01:41:12.140Z,1.50
2023-04-27T01:43:40.303Z,1.40
2023-04-27T01:46:09.215Z,1.67
2023-04-27T01:48:37.884Z,1.65
2023-04-27T01:51:06.079Z,1.50
2023-04-27T01:53:34.245Z,1.40
2023-04-27T01:56:02.728Z,1.50
2023-04-27T01:58:32.552Z,1.50
2023-04-27T02:01:00.631Z,1.35
2023-04-27T02:03:29.104Z,1.45
2023-04-27T02:05:57.580Z,1.17
2023-04-27T02:08:25.826Z,1.40
2023-04-27T02:10:54.070Z,1.60
2023-04-27T02:13:22.487Z,1.30
2023-04-27T02:15:52.047Z,1.30
2023-04-27T02:18:20.797Z,1.48
2023-04-27T02:20:49.174Z,1.50
2023-04-27T02:23:17.255Z,1.35
2023-04-27T02:25:46.971Z,1.55
2023-04-27T02:28:15.420Z,1.42
2023-04-27T02:30:44.004Z,1.58
2023-04-27T02:33:13.979Z,1.55
2023-04-27T02:35:42.031Z,1.60
2023-04-27T02:38:10.413Z,1.40
2023-04-27T02:40:38.463Z,1.38
2023-04-27T02:43:06.708Z,1.60
2023-04-27T02:45:38.296Z,1.70
2023-04-27T02:48:06.816Z,1.52
2023-04-27T02:50:41.937Z,1.58
2023-04-27T02:53:11.086Z,1.50
2023-04-27T02:55:39.711Z,1.77
2023-04-27T02:58:08.058Z,1.70
2023-04-27T03:00:36.195Z,1.90
2023-04-27T03:03:05.039Z,1.63
2023-04-27T03:05:33.380Z,1.52
2023-04-27T03:08:18.534Z,1.52
2023-04-27T03:10:46.746Z,1.60
2023-04-27T03:13:15.891Z,1.67
2023-04-27T03:15:43.984Z,1.90
2023-04-27T03:18:12.417Z,1.60
2023-04-27T03:20:41.077Z,1.67
2023-04-27T03:23:09.391Z,1.73
2023-04-27T03:25:38.795Z,1.52
2023-04-27T03:28:07.879Z,1.67
2023-04-27T03:30:36.034Z,1.60
2023-04-27T03:33:04.184Z,1.73
2023-04-27T03:35:32.230Z,1.80
2023-04-27T03:38:00.342Z,1.80
2023-04-27T03:40:28.509Z,1.95
2023-04-27T03:42:59.161Z,1.67
2023-04-27T03:45:27.325Z,1.83
2023-04-27T03:47:55.755Z,1.77
2023-04-27T03:50:24.202Z,1.60
2023-04-27T03:52:52.255Z,1.75
2023-04-27T03:55:21.137Z,1.77
2023-04-27T03:57:49.282Z,1.80
2023-04-27T04:00:19.434Z,1.70
2023-04-27T04:02:47.881Z,1.75
2023-04-27T04:05:16.309Z,1.90
2023-04-27T04:07:44.721Z,1.80
2023-04-27T04:10:13.026Z,1.80
2023-04-27T04:12:41.289Z,1.83
2023-04-27T04:15:09.888Z,1.88
2023-04-27T04:17:39.405Z,1.88
2023-04-27T04:20:10.756Z,2.03
2023-04-27T04:22:39.590Z,1.90
2023-04-27T04:25:08.653Z,1.98
2023-04-27T04:27:37.694Z,1.83
2023-04-27T04:30:07.166Z,2.13
2023-04-27T04:32:37.859Z,2.00
2023-04-27T04:35:07.958Z,2.10
2023-04-27T04:37:36.531Z,1.90
2023-04-27T04:40:10.397Z,2.08
2023-04-27T04:42:38.885Z,2.00
2023-04-27T04:45:08.134Z,2.15
2023-04-27T04:47:36.749Z,2.08
2023-04-27T04:50:05.343Z,1.90
2023-04-27T04:52:34.826Z,1.80
2023-04-27T04:55:03.279Z,2.10
2023-04-27T04:57:31.994Z,1.90
2023-04-27T05:00:01.992Z,2.08
2023-04-27T05:02:30.614Z,2.10
2023-04-27T05:04:58.945Z,2.00
2023-04-27T05:07:27.020Z,1.83
2023-04-27T05:09:57.267Z,2.17
2023-04-27T05:12:25.437Z,2.10
2023-04-27T05:14:53.600Z,2.30
2023-04-27T05:17:21.783Z,1.90
2023-04-27T05:19:50.010Z,1.88
2023-04-27T05:22:18.466Z,2.03
2023-04-27T05:24:47.020Z,1.95
2023-04-27T05:27:16.804Z,2.00
2023-04-27T05:29:45.309Z,2.10
2023-04-27T05:32:13.393Z,2.15
2023-04-27T05:34:43.706Z,2.00
2023-04-27T05:37:11.846Z,2.00
2023-04-27T05:39:40.609Z,1.98
2023-04-27T05:42:08.795Z,1.83
2023-04-27T05:44:38.252Z,2.05
2023-04-27T05:47:06.563Z,2.28
2023-04-27T05:49:34.578Z,1.98
2023-04-27T05:52:04.280Z,2.15
2023-04-27T05:54:32.505Z,2.22
2023-04-27T05:57:00.540Z,1.88
2023-04-27T05:59:29.362Z,2.20
2023-04-27T06:01:58.984Z,1.98
2023-04-27T06:04:27.615Z,1.92
2023-04-27T06:06:55.838Z,2.40
2023-04-27T06:09:23.935Z,2.03
2023-04-27T06:11:52.253Z,2.00
2023-04-27T06:14:20.284Z,2.08
2023-04-27T06:16:48.370Z,2.00
2023-04-27T06:19:18.037Z,1.98
2023-04-27T06:21:46.446Z,2.20
2023-04-27T06:24:14.686Z,2.00
2023-04-27T06:26:42.707Z,2.00
2023-04-27T06:29:11.393Z,1.98
2023-04-27T06:31:39.691Z,2.15
2023-04-27T06:34:07.954Z,2.20
2023-04-27T06:36:37.445Z,2.03
2023-04-27T06:39:05.485Z,2.00
2023-04-27T06:41:34.024Z,1.80
2023-04-27T06:44:02.080Z,2.08
2023-04-27T06:46:30.215Z,2.10
2023-04-27T06:48:58.461Z,2.03
2023-04-27T06:51:26.837Z,2.20
2023-04-27T06:53:57.311Z,2.00
2023-04-27T06:56:25.515Z,2.03
2023-04-27T06:58:53.857Z,1.92
2023-04-27T07:01:22.664Z,2.22
2023-04-27T07:03:51.270Z,2.10
2023-04-27T07:06:19.913Z,1.90
2023-04-27T07:08:47.986Z,1.80
2023-04-27T07:11:17.615Z,1.80
2023-04-27T07:13:45.745Z,2.05
2023-04-27T07:16:13.888Z,1.90
2023-04-27T07:18:43.449Z,1.83
2023-04-27T07:21:12.311Z,1.95
2023-04-27T07:23:41.293Z,2.08
2023-04-27T07:26:10.741Z,1.80
2023-04-27T07:28:40.277Z,1.90
2023-04-27T07:31:08.538Z,1.92
2023-04-27T07:33:36.782Z,1.83
2023-04-27T07:36:05.362Z,2.00
2023-04-27T07:38:33.564Z,2.00
2023-04-27T07:43:36.132Z,1.90
2023-04-27T07:46:05.892Z,2.08
2023-04-27T07:48:34.055Z,1.73
2023-04-27T07:51:02.338Z,1.90
2023-04-27T07:53:30.441Z,1.80
2023-04-27T07:55:58.520Z,1.65
2023-04-27T07:58:26.789Z,1.77
2023-04-27T08:00:55.217Z,1.92
2023-04-27T08:03:25.242Z,1.80
2023-04-27T08:05:53.660Z,1.85
2023-04-27T08:08:22.782Z,1.77
2023-04-27T08:10:50.801Z,1.63
2023-04-27T08:13:18.867Z,1.90
2023-04-27T08:15:49.290Z,1.90
2023-04-27T08:18:17.978Z,1.70
2023-04-27T08:20:50.685Z,1.52
2023-04-27T08:23:18.832Z,1.80
2023-04-27T08:25:47.041Z,2.00
2023-04-27T08:28:16.363Z,1.58
2023-04-27T08:30:44.746Z,1.85
2023-04-27T08:33:13.416Z,1.67
2023-04-27T08:35:41.670Z,1.67
2023-04-27T08:38:11.299Z,1.63
2023-04-27T08:40:43.984Z,1.60
2023-04-27T08:43:12.319Z,1.70
2023-04-27T08:45:47.053Z,1.77
2023-04-27T08:48:15.274Z,1.70
2023-04-27T08:50:45.948Z,1.80
2023-04-27T08:53:23.202Z,1.65
2023-04-27T08:55:51.817Z,1.80
2023-04-27T08:58:19.912Z,1.70
2023-04-27T09:00:50.778Z,1.88
2023-04-27T09:03:24.244Z,1.80
2023-04-27T09:06:04.295Z,1.90
2023-04-27T09:08:45.972Z,1.27
2023-04-27T09:11:14.250Z,1.55
2023-04-27T09:13:45.399Z,1.60
2023-04-27T09:16:15.154Z,1.55
2023-04-27T09:18:45.218Z,1.65
2023-04-27T09:21:23.565Z,1.67
2023-04-27T09:23:53.357Z,1.70
2023-04-27T09:26:23.107Z,1.70
2023-04-27T09:28:52.916Z,1.50
2023-04-27T09:31:21.498Z,1.67
2023-04-27T09:33:56.537Z,1.50
2023-04-27T09:36:25.842Z,1.60
2023-04-27T09:38:55.617Z,1.65
2023-04-27T09:41:23.798Z,1.85
2023-04-27T09:43:55.723Z,1.40
2023-04-27T09:46:26.017Z,1.50
2023-04-27T09:48:55.450Z,1.70
2023-04-27T09:51:24.092Z,1.65
2023-04-27T09:53:56.951Z,1.40
2023-04-27T09:56:37.679Z,1.63
2023-04-27T09:59:21.460Z,1.58
2023-04-27T10:01:53.805Z,1.45
2023-04-27T10:04:54.080Z,1.70
2023-04-27T10:07:22.803Z,1.38
2023-04-27T10:09:52.624Z,1.40
2023-04-27T10:12:22.621Z,1.40
2023-04-27T10:14:55.561Z,1.80
2023-04-27T10:17:31.471Z,1.50
2023-04-27T10:20:01.289Z,1.67
2023-04-27T10:22:40.255Z,1.63
2023-04-27T10:25:22.106Z,1.60
2023-04-27T10:27:55.722Z,1.50
2023-04-27T10:30:26.100Z,1.20
2023-04-27T10:32:56.868Z,1.50
2023-04-27T10:35:34.801Z,1.50
2023-04-27T10:38:10.275Z,1.45
2023-04-27T10:40:40.114Z,1.42
2023-04-27T10:43:12.771Z,1.30
2023-04-27T10:45:41.499Z,1.30
2023-04-27T10:48:10.959Z,1.50
2023-04-27T10:50:39.094Z,1.40
2023-04-27T10:53:08.818Z,1.70
2023-04-27T10:55:37.454Z,1.50
2023-04-27T10:58:07.146Z,1.52
2023-04-27T11:00:37.594Z,1.13
2023-04-27T11:03:16.388Z,1.50
2023-04-27T11:05:45.948Z,1.50
2023-04-27T11:08:15.875Z,1.35
2023-04-27T11:10:47.183Z,1.55
2023-04-27T11:13:18.098Z,1.50
2023-04-27T11:15:50.509Z,1.30
2023-04-27T11:18:20.668Z,1.38
2023-04-27T11:20:50.753Z,1.35
2023-04-27T11:23:26.442Z,1.55
2023-04-27T11:25:55.329Z,1.80
2023-04-27T11:28:25.400Z,1.42
2023-04-27T11:31:00.906Z,1.30
2023-04-27T11:33:29.404Z,1.25
2023-04-27T11:35:58.258Z,1.20
2023-04-27T11:38:27.684Z,1.50
2023-04-27T11:41:02.804Z,1.40
2023-04-27T11:43:33.171Z,1.27
2023-04-27T11:46:04.332Z,1.35
2023-04-27T11:48:32.663Z,1.38
2023-04-27T11:51:01.459Z,1.17
2023-04-27T11:53:34.374Z,1.25
2023-04-27T11:56:05.324Z,1.48
2023-04-27T11:58:37.037Z,1.30
2023-04-27T12:01:05.503Z,1.20
2023-04-27T12:03:34.358Z,1.40
2023-04-27T12:08:33.987Z,1.38
2023-04-27T12:11:02.551Z,1.50
2023-04-27T12:13:31.002Z,1.20
2023-04-27T12:16:01.134Z,1.08
2023-04-27T12:18:29.398Z,1.40
2023-04-27T12:20:59.005Z,1.13
2023-04-27T12:23:30.931Z,1.48
2023-04-27T12:25:59.045Z,1.10
2023-04-27T12:28:27.154Z,1.15
2023-04-27T12:30:56.052Z,1.08
2023-04-27T12:33:26.052Z,1.33
2023-04-27T12:35:54.103Z,1.60
2023-04-27T12:38:23.246Z,1.30
2023-04-27T12:40:51.573Z,1.30
2023-04-27T12:43:19.637Z,1.30
2023-04-27T12:45:47.711Z,1.52
2023-04-27T12:48:17.562Z,1.20
2023-04-27T12:50:47.616Z,1.45
2023-04-27T12:53:15.652Z,1.20
2023-04-27T12:55:44.126Z,1.33
2023-04-27T12:58:12.620Z,1.30
2023-04-27T13:00:41.744Z,1.15
2023-04-27T13:03:10.078Z,1.38
2023-04-27T13:05:38.593Z,1.35
2023-04-27T13:08:08.073Z,1.20
2023-04-27T13:10:36.578Z,1.40
2023-04-27T13:13:04.863Z,1.20
2023-04-27T13:15:33.260Z,1.33
2023-04-27T13:18:05.273Z,1.15
2023-04-27T13:20:33.902Z,1.10
2023-04-27T13:23:01.950Z,1.40
2023-04-27T13:25:31.504Z,1.15
2023-04-27T13:27:59.679Z,1.40
2023-04-27T13:30:28.073Z,1.02
2023-04-27T13:33:04.368Z,1.20
2023-04-27T13:35:38.987Z,0.98
2023-04-27T13:38:07.360Z,1.30
2023-04-27T13:40:36.903Z,1.10
2023-04-27T13:43:05.068Z,1.40
2023-04-27T13:45:33.446Z,1.30
2023-04-27T13:48:01.803Z,1.15
2023-04-27T13:50:30.079Z,1.27
2023-04-27T13:52:58.471Z,1.40
2023-04-27T13:55:26.850Z,1.25
2023-04-27T13:57:56.381Z,1.25
2023-04-27T14:00:25.015Z,1.33
2023-04-27T14:02:53.276Z,1.30
2023-04-27T14:05:21.662Z,1.00
2023-04-27T14:07:49.832Z,1.25
2023-04-27T14:10:18.628Z,1.30
2023-04-27T14:12:47.038Z,1.48
2023-04-27T14:15:16.676Z,1.15
2023-04-27T14:17:45.060Z,1.42
2023-04-27T14:20:13.620Z,1.30
2023-04-27T14:22:41.813Z,1.20
2023-04-27T14:25:10.674Z,0.90
2023-04-27T14:27:38.849Z,1.20
2023-04-27T14:30:08.514Z,1.10
2023-04-27T14:32:38.285Z,1.30
2023-04-27T14:35:07.094Z,1.23
2023-04-27T14:37:35.208Z,0.95
2023-04-27T14:40:04.806Z,0.95
2023-04-27T14:42:33.211Z,1.20
2023-04-27T14:45:01.629Z,1.25
2023-04-27T14:47:29.744Z,1.40
2023-04-27T14:50:00.397Z,1.10
2023-04-27T14:52:29.069Z,1.05
2023-04-27T14:54:59.294Z,1.25
2023-04-27T14:57:27.475Z,1.30
2023-04-27T14:59:56.983Z,1.40
2023-04-27T15:02:25.136Z,1.15
2023-04-27T15:04:53.315Z,1.02
2023-04-27T15:07:22.799Z,1.20
2023-04-27T15:09:51.495Z,1.20
2023-04-27T15:12:19.767Z,1.08
2023-04-27T15:14:50.078Z,1.23
2023-04-27T15:17:18.168Z,1.17
2023-04-27T15:19:49.478Z,1.10
2023-04-27T15:22:17.610Z,1.40
2023-04-27T15:24:47.223Z,1.10
2023-04-27T15:27:15.709Z,1.05
2023-04-27T15:29:43.916Z,1.30
2023-04-27T15:32:12.079Z,1.38
2023-04-27T15:34:42.622Z,1.25
2023-04-27T15:37:13.520Z,1.10
2023-04-27T15:39:42.120Z,1.20
2023-04-27T15:42:11.773Z,1.02
2023-04-27T15:44:39.872Z,1.10
2023-04-27T15:47:08.147Z,1.45
2023-04-27T15:49:45.846Z,1.05
2023-04-27T15:52:17.927Z,1.30
2023-04-27T15:54:46.013Z,1.20
2023-04-27T15:57:15.585Z,1.23
2023-04-27T15:59:43.731Z,1.02
2023-04-27T16:02:12.490Z,0.93
2023-04-27T16:04:40.764Z,1.10
2023-04-27T16:07:09.155Z,0.90
2023-04-27T16:09:37.671Z,0.93
2023-04-27T16:12:06.670Z,1.20
2023-04-27T16:14:36.423Z,1.17
2023-04-27T16:17:04.572Z,1.20
2023-04-27T16:19:32.797Z,1.27
2023-04-27T16:22:01.329Z,1.20
2023-04-27T16:24:30.502Z,1.20
2023-04-27T16:26:58.796Z,1.27
2023-04-27T16:29:27.020Z,1.20
2023-04-27T16:31:56.652Z,1.20
2023-04-27T16:34:25.379Z,1.35
2023-04-27T16:36:53.524Z,1.15
2023-04-27T16:39:21.748Z,1.10
2023-04-27T16:41:50.261Z,0.95
2023-04-27T16:44:18.464Z,1.20
2023-04-27T16:46:47.387Z,1.40
2023-04-27T16:49:17.380Z,1.10
2023-04-27T16:51:46.293Z,1.30
2023-04-27T16:54:16.415Z,1.00
2023-04-27T16:56:45.847Z,1.30
2023-04-27T16:59:14.266Z,1.30
2023-04-27T17:01:42.804Z,1.30
2023-04-27T17:04:12.206Z,1.10
2023-04-27T17:06:42.263Z,1.00
2023-04-27T17:09:18.138Z,1.27
2023-04-27T17:11:46.401Z,1.15
2023-04-27T17:14:14.935Z,1.20
2023-04-27T17:16:43.006Z,1.15
2023-04-27T17:19:12.123Z,1.17
2023-04-27T17:21:40.814Z,0.98
2023-04-27T17:24:11.755Z,1.10
2023-04-27T17:26:39.748Z,1.33
2023-04-27T17:29:07.916Z,1.35
2023-04-27T17:31:36.047Z,1.02
2023-04-27T17:34:04.539Z,1.30
2023-04-27T17:36:32.859Z,1.10
2023-04-27T17:39:01.824Z,1.20
2023-04-27T17:41:32.834Z,1.10
2023-04-27T17:44:01.783Z,0.85
2023-04-27T17:46:30.194Z,1.20
2023-04-27T17:48:58.900Z,1.52
2023-04-27T17:51:27.621Z,1.30
2023-04-27T17:53:56.352Z,1.40
2023-04-27T17:56:24.640Z,1.10
2023-04-27T17:58:54.547Z,1.48
2023-04-27T18:01:23.084Z,1.00
2023-04-27T18:03:51.639Z,1.15
2023-04-27T18:06:21.384Z,1.17
2023-04-27T18:08:50.630Z,1.33
2023-04-27T18:11:19.203Z,1.30
2023-04-27T18:13:48.030Z,1.30
2023-04-27T18:16:17.893Z,1.50
2023-04-27T18:18:46.287Z,1.40
2023-04-27T18:21:25.462Z,1.50
2023-04-27T18:23:53.964Z,1.40
2023-04-27T18:26:24.114Z,1.40
2023-04-27T18:28:53.274Z,1.50
2023-04-27T18:31:26.127Z,1.50
2023-04-27T18:33:55.148Z,1.33
2023-04-27T18:36:25.651Z,1.40
2023-04-27T18:38:54.114Z,1.20
2023-04-27T18:41:23.968Z,1.38
2023-04-27T18:43:52.655Z,1.40
2023-04-27T18:46:21.505Z,1.27
2023-04-27T18:48:51.905Z,1.20
2023-04-27T18:51:20.956Z,1.30
2023-04-27T18:53:49.460Z,1.13
2023-04-27T18:56:18.100Z,1.40
2023-04-27T18:58:48.661Z,1.38
2023-04-27T19:01:21.196Z,1.42
2023-04-27T19:03:51.959Z,1.50
2023-04-27T19:06:21.980Z,1.40
2023-04-27T19:08:50.634Z,1.55
2023-04-27T19:11:22.303Z,1.60
2023-04-27T19:13:51.480Z,1.40
2023-04-27T19:16:20.048Z,1.60
2023-04-27T19:18:48.771Z,1.55
2023-04-27T19:21:19.149Z,1.50
2023-04-27T19:23:48.576Z,1.60
2023-04-27T19:26:17.460Z,1.52
2023-04-27T19:28:45.903Z,1.50
2023-04-27T19:31:15.312Z,1.38
2023-04-27T19:33:46.680Z,1.60
2023-04-27T19:36:15.787Z,1.60
2023-04-27T19:38:45.333Z,1.58
2023-04-27T19:41:14.740Z,1.50
2023-04-27T19:43:42.944Z,1.50
2023-04-27T19:46:11.286Z,1.50
2023-04-27T19:48:41.090Z,1.80
2023-04-27T19:51:16.659Z,1.55
2023-04-27T19:53:46.512Z,1.70
2023-04-27T19:56:14.715Z,1.40
2023-04-27T19:58:42.999Z,1.60
2023-04-27T20:01:12.945Z,1.48
2023-04-27T20:03:41.732Z,1.38
2023-04-27T20:06:11.363Z,1.70
2023-04-27T20:08:39.856Z,1.60
2023-04-27T20:11:09.411Z,1.67
2023-04-27T20:13:37.852Z,1.60
2023-04-27T20:16:06.641Z,1.40
2023-04-27T20:18:35.100Z,1.92
2023-04-27T20:21:03.848Z,1.80
2023-04-27T20:23:32.132Z,1.70
2023-04-27T20:26:01.198Z,1.75
2023-04-27T20:28:32.623Z,1.70
2023-04-27T20:31:00.951Z,2.00
2023-04-27T20:33:29.005Z,1.80
2023-04-27T20:36:03.538Z,2.10
2023-04-27T20:38:38.548Z,2.00
2023-04-27T20:41:06.820Z,2.10
2023-04-27T20:43:39.114Z,2.08
2023-04-27T20:46:07.738Z,2.50
2023-04-27T20:48:36.174Z,2.03
2023-04-27T20:51:04.726Z,2.10
2023-04-27T20:53:33.050Z,2.25
2023-04-27T20:56:01.456Z,2.33
2023-04-27T20:58:29.668Z,2.38
2023-04-27T21:00:59.209Z,2.40
2023-04-27T21:03:27.637Z,2.30
2023-04-27T21:05:56.063Z,2.42
2023-04-27T21:08:24.179Z,2.35
2023-04-27T21:10:52.429Z,1.92
2023-04-27T21:13:20.693Z,2.35
2023-04-27T21:15:48.811Z,2.47
2023-04-27T21:18:29.105Z,2.15
2023-04-27T21:20:58.860Z,2.40
2023-04-27T21:23:27.235Z,2.22
2023-04-27T21:25:55.871Z,2.40
2023-04-27T21:28:24.285Z,2.15
2023-04-27T21:30:52.594Z,2.00
2023-04-27T21:33:22.493Z,2.40
2023-04-27T21:35:50.575Z,2.03
2023-04-27T21:38:18.735Z,2.28
2023-04-27T21:40:47.137Z,1.90
2023-04-27T21:43:15.243Z,2.28
2023-04-27T21:45:43.353Z,2.60
2023-04-27T21:48:11.602Z,2.45
2023-04-27T21:50:41.119Z,2.35
2023-04-27T21:53:09.527Z,2.45
2023-04-27T21:55:37.642Z,2.08
2023-04-27T21:58:05.928Z,2.08
2023-04-27T22:00:34.426Z,2.28
2023-04-27T22:03:02.614Z,2.40
2023-04-27T22:05:33.460Z,2.45
2023-04-27T22:08:03.406Z,2.30
2023-04-27T22:10:31.629Z,2.60
2023-04-27T22:13:05.223Z,2.47
2023-04-27T22:15:43.239Z,2.45
2023-04-27T22:18:11.404Z,2.30
2023-04-27T22:20:40.389Z,2.42
2023-04-27T22:23:10.289Z,2.55
2023-04-27T22:25:38.589Z,2.58
2023-04-27T22:28:06.657Z,2.30
2023-04-27T22:30:36.256Z,2.45
2023-04-27T22:33:04.662Z,2.47
2023-04-27T22:35:33.756Z,2.67
2023-04-27T22:38:02.816Z,2.40
2023-04-27T22:40:32.382Z,2.42
2023-04-27T22:43:00.568Z,2.50
2023-04-27T22:45:28.777Z,2.58
2023-04-27T22:47:57.630Z,2.58
2023-04-27T22:50:26.747Z,2.28
2023-04-27T22:52:54.971Z,2.40
2023-04-27T22:55:23.504Z,2.63
2023-04-27T22:57:53.969Z,2.53
2023-04-27T23:00:22.232Z,2.88
2023-04-27T23:02:50.868Z,2.50
2023-04-27T23:05:19.067Z,2.55
2023-04-27T23:07:47.117Z,2.95
2023-04-27T23:10:15.766Z,2.83
2023-04-27T23:12:43.978Z,2.70
2023-04-27T23:15:15.183Z,2.60
2023-04-27T23:17:43.568Z,2.60
2023-04-27T23:20:24.519Z,2.78
2023-04-27T23:22:55.855Z,2.80
2023-04-27T23:25:23.920Z,2.90
2023-04-27T23:27:52.863Z,3.08
2023-04-27T23:30:23.455Z,2.95
2023-04-27T23:32:52.114Z,3.40
2023-04-27T23:35:20.358Z,2.92
2023-04-27T23:37:48.660Z,3.20
2023-04-27T23:40:16.748Z,3.03
2023-04-27T23:42:44.825Z,2.88
2023-04-27T23:45:13.415Z,2.50
2023-04-27T23:47:43.212Z,3.20
2023-04-27T23:50:11.863Z,3.55
2023-04-27T23:52:39.992Z,3.20
2023-04-27T23:55:09.178Z,3.00
2023-04-27T23:57:37.263Z,3.17
